sensor_id;sensor_type;location;lat;lon;timestamp;P1;durP1;ratioP1;P2;durP2;ratioP2
11548;SDS011;61444;59.472;18.306;2023-02-01T00:00:26;22.87;;;9.70;;
11548;SDS011;61444;59.472;18.306;2023-02-01T00:02:37;19.60;;;9.77;;
11548;SDS011;61444;59.472;18.306;2023-02-01T00:04:47;20.13;;;8.90;;
11548;SDS011;61444;59.472;18.306;2023-02-01T00:06:56;20.77;;;8.27;;
11548;SDS011;61444;59.472;18.306;2023-02-01T00:09:05;19.37;;;7.87;;
11548;SDS011;61444;59.472;18.306;2023-02-01T00:11:14;22.07;;;9.60;;
11548;SDS011;61444;59.472;18.306;2023-02-01T00:13:23;19.03;;;8.83;;
11548;SDS011;61444;59.472;18.306;2023-02-01T00:15:32;15.97;;;8.97;;
11548;SDS011;61444;59.472;18.306;2023-02-01T00:17:43;17.70;;;8.07;;
11548;SDS011;61444;59.472;18.306;2023-02-01T00:19:52;15.80;;;8.47;;
11548;SDS011;61444;59.472;18.306;2023-02-01T00:22:00;15.60;;;7.93;;
11548;SDS011;61444;59.472;18.306;2023-02-01T00:24:10;15.20;;;6.93;;
11548;SDS011;61444;59.472;18.306;2023-02-01T00:26:19;15.97;;;6.73;;
11548;SDS011;61444;59.472;18.306;2023-02-01T00:28:29;20.87;;;8.20;;
11548;SDS011;61444;59.472;18.306;2023-02-01T00:30:38;20.60;;;8.73;;
11548;SDS011;61444;59.472;18.306;2023-02-01T00:32:48;21.50;;;9.00;;
11548;SDS011;61444;59.472;18.306;2023-02-01T00:34:57;15.53;;;7.47;;
11548;SDS011;61444;59.472;18.306;2023-02-01T00:37:06;16.30;;;7.93;;
11548;SDS011;61444;59.472;18.306;2023-02-01T00:39:15;16.83;;;8.10;;
11548;SDS011;61444;59.472;18.306;2023-02-01T00:41:24;16.73;;;8.23;;
11548;SDS011;61444;59.472;18.306;2023-02-01T00:43:34;15.07;;;7.17;;
11548;SDS011;61444;59.472;18.306;2023-02-01T00:45:42;20.27;;;7.90;;
11548;SDS011;61444;59.472;18.306;2023-02-01T00:47:53;18.13;;;8.53;;
11548;SDS011;61444;59.472;18.306;2023-02-01T00:50:02;18.73;;;7.93;;
11548;SDS011;61444;59.472;18.306;2023-02-01T00:52:11;15.97;;;8.00;;
11548;SDS011;61444;59.472;18.306;2023-02-01T00:54:20;15.47;;;7.40;;
11548;SDS011;61444;59.472;18.306;2023-02-01T00:56:29;17.70;;;8.40;;
11548;SDS011;61444;59.472;18.306;2023-02-01T00:58:38;17.53;;;8.07;;
11548;SDS011;61444;59.472;18.306;2023-02-01T01:00:59;15.07;;;7.53;;
11548;SDS011;61444;59.472;18.306;2023-02-01T01:03:10;27.67;;;8.63;;
11548;SDS011;61444;59.472;18.306;2023-02-01T01:05:25;20.93;;;8.97;;
11548;SDS011;61444;59.472;18.306;2023-02-01T01:07:34;20.80;;;8.33;;
11548;SDS011;61444;59.472;18.306;2023-02-01T01:09:43;17.10;;;8.10;;
11548;SDS011;61444;59.472;18.306;2023-02-01T01:11:52;15.63;;;6.60;;
11548;SDS011;61444;59.472;18.306;2023-02-01T01:14:01;18.47;;;6.93;;
11548;SDS011;61444;59.472;18.306;2023-02-01T01:16:11;13.77;;;6.40;;
11548;SDS011;61444;59.472;18.306;2023-02-01T01:18:21;13.63;;;6.87;;
11548;SDS011;61444;59.472;18.306;2023-02-01T01:20:31;13.37;;;5.80;;
11548;SDS011;61444;59.472;18.306;2023-02-01T01:22:40;10.67;;;5.67;;
11548;SDS011;61444;59.472;18.306;2023-02-01T01:24:49;9.37;;;6.07;;
11548;SDS011;61444;59.472;18.306;2023-02-01T01:26:58;13.63;;;5.77;;
11548;SDS011;61444;59.472;18.306;2023-02-01T01:29:08;15.63;;;5.57;;
11548;SDS011;61444;59.472;18.306;2023-02-01T01:31:18;15.20;;;5.30;;
11548;SDS011;61444;59.472;18.306;2023-02-01T01:33:29;12.23;;;5.30;;
11548;SDS011;61444;59.472;18.306;2023-02-01T01:35:38;10.10;;;5.40;;
11548;SDS011;61444;59.472;18.306;2023-02-01T01:37:47;12.00;;;5.27;;
11548;SDS011;61444;59.472;18.306;2023-02-01T01:39:56;10.83;;;5.60;;
11548;SDS011;61444;59.472;18.306;2023-02-01T01:42:05;11.17;;;5.77;;
11548;SDS011;61444;59.472;18.306;2023-02-01T01:46:43;12.77;;;5.80;;
11548;SDS011;61444;59.472;18.306;2023-02-01T01:48:57;13.47;;;6.17;;
11548;SDS011;61444;59.472;18.306;2023-02-01T01:51:07;13.83;;;6.27;;
11548;SDS011;61444;59.472;18.306;2023-02-01T01:53:18;16.30;;;6.90;;
11548;SDS011;61444;59.472;18.306;2023-02-01T01:55:30;13.77;;;5.57;;
11548;SDS011;61444;59.472;18.306;2023-02-01T01:57:42;13.27;;;6.93;;
11548;SDS011;61444;59.472;18.306;2023-02-01T01:59:53;13.13;;;5.70;;
11548;SDS011;61444;59.472;18.306;2023-02-01T02:02:05;11.83;;;6.13;;
11548;SDS011;61444;59.472;18.306;2023-02-01T02:04:16;14.67;;;5.70;;
11548;SDS011;61444;59.472;18.306;2023-02-01T02:06:32;8.63;;;4.10;;
11548;SDS011;61444;59.472;18.306;2023-02-01T02:08:42;11.57;;;4.43;;
11548;SDS011;61444;59.472;18.306;2023-02-01T02:10:51;10.40;;;4.47;;
11548;SDS011;61444;59.472;18.306;2023-02-01T02:13:09;8.00;;;4.40;;
11548;SDS011;61444;59.472;18.306;2023-02-01T02:15:19;13.37;;;5.13;;
11548;SDS011;61444;59.472;18.306;2023-02-01T02:17:30;11.80;;;4.87;;
11548;SDS011;61444;59.472;18.306;2023-02-01T02:22:24;9.90;;;4.70;;
11548;SDS011;61444;59.472;18.306;2023-02-01T02:24:43;12.27;;;5.83;;
11548;SDS011;61444;59.472;18.306;2023-02-01T02:27:15;15.03;;;5.37;;
11548;SDS011;61444;59.472;18.306;2023-02-01T02:32:04;12.13;;;4.67;;
11548;SDS011;61444;59.472;18.306;2023-02-01T02:34:18;12.20;;;4.47;;
11548;SDS011;61444;59.472;18.306;2023-02-01T02:36:35;8.00;;;4.37;;
11548;SDS011;61444;59.472;18.306;2023-02-01T02:38:47;9.73;;;4.60;;
11548;SDS011;61444;59.472;18.306;2023-02-01T02:41:01;9.00;;;4.53;;
11548;SDS011;61444;59.472;18.306;2023-02-01T02:43:13;9.07;;;4.60;;
11548;SDS011;61444;59.472;18.306;2023-02-01T02:45:43;8.63;;;3.87;;
11548;SDS011;61444;59.472;18.306;2023-02-01T02:48:11;12.63;;;4.23;;
11548;SDS011;61444;59.472;18.306;2023-02-01T02:50:24;7.77;;;4.50;;
11548;SDS011;61444;59.472;18.306;2023-02-01T02:52:53;9.03;;;4.57;;
11548;SDS011;61444;59.472;18.306;2023-02-01T02:55:21;8.07;;;4.30;;
11548;SDS011;61444;59.472;18.306;2023-02-01T02:57:32;10.70;;;4.97;;
11548;SDS011;61444;59.472;18.306;2023-02-01T03:00:00;8.33;;;4.13;;
11548;SDS011;61444;59.472;18.306;2023-02-01T03:02:28;9.93;;;4.30;;
11548;SDS011;61444;59.472;18.306;2023-02-01T03:04:55;8.07;;;4.00;;
11548;SDS011;61444;59.472;18.306;2023-02-01T03:07:13;10.47;;;4.33;;
11548;SDS011;61444;59.472;18.306;2023-02-01T03:09:23;11.33;;;4.70;;
11548;SDS011;61444;59.472;18.306;2023-02-01T03:11:35;8.90;;;4.20;;
11548;SDS011;61444;59.472;18.306;2023-02-01T03:14:13;8.37;;;3.93;;
11548;SDS011;61444;59.472;18.306;2023-02-01T03:16:23;8.80;;;4.17;;
11548;SDS011;61444;59.472;18.306;2023-02-01T03:18:33;9.40;;;3.80;;
11548;SDS011;61444;59.472;18.306;2023-02-01T03:20:46;7.90;;;3.90;;
11548;SDS011;61444;59.472;18.306;2023-02-01T03:22:58;11.17;;;3.90;;
11548;SDS011;61444;59.472;18.306;2023-02-01T03:25:09;7.47;;;3.67;;
11548;SDS011;61444;59.472;18.306;2023-02-01T03:27:20;7.73;;;4.00;;
11548;SDS011;61444;59.472;18.306;2023-02-01T03:29:32;7.90;;;4.70;;
11548;SDS011;61444;59.472;18.306;2023-02-01T03:31:42;7.07;;;3.90;;
11548;SDS011;61444;59.472;18.306;2023-02-01T03:33:51;9.20;;;4.40;;
11548;SDS011;61444;59.472;18.306;2023-02-01T03:36:02;7.27;;;3.77;;
11548;SDS011;61444;59.472;18.306;2023-02-01T03:38:17;8.73;;;4.27;;
11548;SDS011;61444;59.472;18.306;2023-02-01T03:40:28;7.53;;;3.80;;
11548;SDS011;61444;59.472;18.306;2023-02-01T03:42:42;8.50;;;3.37;;
11548;SDS011;61444;59.472;18.306;2023-02-01T03:44:54;9.97;;;3.73;;
11548;SDS011;61444;59.472;18.306;2023-02-01T03:47:06;9.80;;;3.43;;
11548;SDS011;61444;59.472;18.306;2023-02-01T03:49:18;7.77;;;3.53;;
11548;SDS011;61444;59.472;18.306;2023-02-01T03:51:29;7.80;;;3.43;;
11548;SDS011;61444;59.472;18.306;2023-02-01T03:53:40;6.17;;;3.37;;
11548;SDS011;61444;59.472;18.306;2023-02-01T03:55:53;7.47;;;2.87;;
11548;SDS011;61444;59.472;18.306;2023-02-01T03:58:04;7.30;;;3.40;;
11548;SDS011;61444;59.472;18.306;2023-02-01T04:00:16;5.73;;;3.27;;
11548;SDS011;61444;59.472;18.306;2023-02-01T04:02:26;11.63;;;3.67;;
11548;SDS011;61444;59.472;18.306;2023-02-01T04:04:35;8.97;;;3.60;;
11548;SDS011;61444;59.472;18.306;2023-02-01T04:06:44;7.70;;;3.27;;
11548;SDS011;61444;59.472;18.306;2023-02-01T04:08:54;10.43;;;3.70;;
11548;SDS011;61444;59.472;18.306;2023-02-01T04:11:03;9.03;;;3.10;;
11548;SDS011;61444;59.472;18.306;2023-02-01T04:13:12;6.00;;;3.77;;
11548;SDS011;61444;59.472;18.306;2023-02-01T04:15:22;7.00;;;3.00;;
11548;SDS011;61444;59.472;18.306;2023-02-01T04:17:31;8.77;;;3.47;;
11548;SDS011;61444;59.472;18.306;2023-02-01T04:19:40;5.07;;;3.27;;
11548;SDS011;61444;59.472;18.306;2023-02-01T04:21:49;8.23;;;3.90;;
11548;SDS011;61444;59.472;18.306;2023-02-01T04:24:00;7.00;;;3.27;;
11548;SDS011;61444;59.472;18.306;2023-02-01T04:26:09;6.63;;;3.40;;
11548;SDS011;61444;59.472;18.306;2023-02-01T04:28:18;7.77;;;3.40;;
11548;SDS011;61444;59.472;18.306;2023-02-01T04:30:27;8.43;;;4.10;;
11548;SDS011;61444;59.472;18.306;2023-02-01T04:32:36;5.40;;;3.33;;
11548;SDS011;61444;59.472;18.306;2023-02-01T04:34:45;6.40;;;3.40;;
11548;SDS011;61444;59.472;18.306;2023-02-01T04:36:55;8.30;;;4.07;;
11548;SDS011;61444;59.472;18.306;2023-02-01T04:39:05;8.07;;;3.70;;
11548;SDS011;61444;59.472;18.306;2023-02-01T04:41:14;7.27;;;3.60;;
11548;SDS011;61444;59.472;18.306;2023-02-01T04:43:25;7.33;;;3.80;;
11548;SDS011;61444;59.472;18.306;2023-02-01T04:45:34;7.60;;;3.57;;
11548;SDS011;61444;59.472;18.306;2023-02-01T04:47:43;8.67;;;3.43;;
11548;SDS011;61444;59.472;18.306;2023-02-01T04:49:52;11.03;;;2.93;;
11548;SDS011;61444;59.472;18.306;2023-02-01T04:52:01;13.23;;;3.60;;
11548;SDS011;61444;59.472;18.306;2023-02-01T04:54:12;6.93;;;3.20;;
11548;SDS011;61444;59.472;18.306;2023-02-01T04:56:21;9.57;;;3.87;;
11548;SDS011;61444;59.472;18.306;2023-02-01T04:58:29;9.07;;;3.70;;
11548;SDS011;61444;59.472;18.306;2023-02-01T05:00:38;7.07;;;3.73;;
11548;SDS011;61444;59.472;18.306;2023-02-01T05:02:47;7.07;;;4.03;;
11548;SDS011;61444;59.472;18.306;2023-02-01T05:04:56;11.73;;;4.20;;
11548;SDS011;61444;59.472;18.306;2023-02-01T05:07:05;10.57;;;4.00;;
11548;SDS011;61444;59.472;18.306;2023-02-01T05:09:16;9.20;;;4.07;;
11548;SDS011;61444;59.472;18.306;2023-02-01T05:11:25;8.90;;;3.97;;
11548;SDS011;61444;59.472;18.306;2023-02-01T05:13:51;8.93;;;4.10;;
11548;SDS011;61444;59.472;18.306;2023-02-01T05:16:00;9.07;;;4.17;;
11548;SDS011;61444;59.472;18.306;2023-02-01T05:18:09;7.43;;;3.70;;
11548;SDS011;61444;59.472;18.306;2023-02-01T05:20:18;9.77;;;4.20;;
11548;SDS011;61444;59.472;18.306;2023-02-01T05:22:28;24.53;;;4.13;;
11548;SDS011;61444;59.472;18.306;2023-02-01T05:24:38;20.87;;;4.50;;
11548;SDS011;61444;59.472;18.306;2023-02-01T05:26:47;10.17;;;4.37;;
11548;SDS011;61444;59.472;18.306;2023-02-01T05:28:56;14.03;;;4.30;;
11548;SDS011;61444;59.472;18.306;2023-02-01T05:31:09;15.43;;;3.93;;
11548;SDS011;61444;59.472;18.306;2023-02-01T05:33:18;11.73;;;3.23;;
11548;SDS011;61444;59.472;18.306;2023-02-01T05:35:26;12.07;;;4.07;;
11548;SDS011;61444;59.472;18.306;2023-02-01T05:37:35;10.20;;;3.73;;
11548;SDS011;61444;59.472;18.306;2023-02-01T05:39:46;9.40;;;3.90;;
11548;SDS011;61444;59.472;18.306;2023-02-01T05:41:55;8.33;;;3.33;;
11548;SDS011;61444;59.472;18.306;2023-02-01T05:44:04;12.07;;;3.93;;
11548;SDS011;61444;59.472;18.306;2023-02-01T05:46:14;8.67;;;3.40;;
11548;SDS011;61444;59.472;18.306;2023-02-01T05:48:23;7.10;;;4.23;;
11548;SDS011;61444;59.472;18.306;2023-02-01T05:50:32;8.43;;;3.90;;
11548;SDS011;61444;59.472;18.306;2023-02-01T05:52:41;9.57;;;3.47;;
11548;SDS011;61444;59.472;18.306;2023-02-01T05:54:50;10.70;;;3.87;;
11548;SDS011;61444;59.472;18.306;2023-02-01T05:57:00;11.50;;;4.17;;
11548;SDS011;61444;59.472;18.306;2023-02-01T05:59:09;7.13;;;3.87;;
11548;SDS011;61444;59.472;18.306;2023-02-01T06:01:17;10.73;;;3.90;;
11548;SDS011;61444;59.472;18.306;2023-02-01T06:03:26;11.60;;;4.00;;
11548;SDS011;61444;59.472;18.306;2023-02-01T06:05:36;6.57;;;3.90;;
11548;SDS011;61444;59.472;18.306;2023-02-01T06:07:45;10.33;;;3.83;;
11548;SDS011;61444;59.472;18.306;2023-02-01T06:09:55;6.67;;;3.63;;
11548;SDS011;61444;59.472;18.306;2023-02-01T06:12:04;8.70;;;4.13;;
11548;SDS011;61444;59.472;18.306;2023-02-01T06:14:13;8.50;;;3.67;;
11548;SDS011;61444;59.472;18.306;2023-02-01T06:16:22;12.50;;;4.30;;
11548;SDS011;61444;59.472;18.306;2023-02-01T06:18:31;14.53;;;5.23;;
11548;SDS011;61444;59.472;18.306;2023-02-01T06:20:40;7.30;;;3.97;;
11548;SDS011;61444;59.472;18.306;2023-02-01T06:22:49;8.97;;;4.10;;
11548;SDS011;61444;59.472;18.306;2023-02-01T06:25:00;10.07;;;3.60;;
11548;SDS011;61444;59.472;18.306;2023-02-01T06:27:09;7.47;;;3.50;;
11548;SDS011;61444;59.472;18.306;2023-02-01T06:29:18;10.67;;;3.83;;
11548;SDS011;61444;59.472;18.306;2023-02-01T06:31:27;12.57;;;3.70;;
11548;SDS011;61444;59.472;18.306;2023-02-01T06:33:38;7.47;;;3.50;;
11548;SDS011;61444;59.472;18.306;2023-02-01T06:35:47;9.00;;;3.70;;
11548;SDS011;61444;59.472;18.306;2023-02-01T06:37:57;8.13;;;3.67;;
11548;SDS011;61444;59.472;18.306;2023-02-01T06:40:08;5.60;;;3.37;;
11548;SDS011;61444;59.472;18.306;2023-02-01T06:42:18;8.07;;;3.33;;
11548;SDS011;61444;59.472;18.306;2023-02-01T06:44:26;10.67;;;3.93;;
11548;SDS011;61444;59.472;18.306;2023-02-01T06:46:36;7.80;;;3.67;;
11548;SDS011;61444;59.472;18.306;2023-02-01T06:48:45;10.67;;;3.80;;
11548;SDS011;61444;59.472;18.306;2023-02-01T06:50:55;11.17;;;3.90;;
11548;SDS011;61444;59.472;18.306;2023-02-01T06:53:04;12.50;;;4.20;;
11548;SDS011;61444;59.472;18.306;2023-02-01T06:55:15;12.70;;;4.20;;
11548;SDS011;61444;59.472;18.306;2023-02-01T06:57:24;10.43;;;4.10;;
11548;SDS011;61444;59.472;18.306;2023-02-01T06:59:37;11.07;;;4.20;;
11548;SDS011;61444;59.472;18.306;2023-02-01T07:01:46;12.27;;;4.00;;
11548;SDS011;61444;59.472;18.306;2023-02-01T07:03:54;12.60;;;4.43;;
11548;SDS011;61444;59.472;18.306;2023-02-01T07:06:04;10.73;;;4.13;;
11548;SDS011;61444;59.472;18.306;2023-02-01T07:08:13;9.87;;;4.40;;
11548;SDS011;61444;59.472;18.306;2023-02-01T07:10:24;13.13;;;4.37;;
11548;SDS011;61444;59.472;18.306;2023-02-01T07:12:33;12.93;;;3.83;;
11548;SDS011;61444;59.472;18.306;2023-02-01T07:14:42;11.63;;;3.63;;
11548;SDS011;61444;59.472;18.306;2023-02-01T07:16:51;16.43;;;4.77;;
11548;SDS011;61444;59.472;18.306;2023-02-01T07:19:00;17.30;;;3.90;;
11548;SDS011;61444;59.472;18.306;2023-02-01T07:21:09;16.67;;;3.53;;
11548;SDS011;61444;59.472;18.306;2023-02-01T07:23:18;8.87;;;3.57;;
11548;SDS011;61444;59.472;18.306;2023-02-01T07:25:29;10.83;;;3.97;;
11548;SDS011;61444;59.472;18.306;2023-02-01T07:27:38;12.80;;;3.73;;
11548;SDS011;61444;59.472;18.306;2023-02-01T07:29:47;9.40;;;4.30;;
11548;SDS011;61444;59.472;18.306;2023-02-01T07:31:56;11.20;;;3.40;;
11548;SDS011;61444;59.472;18.306;2023-02-01T07:34:05;6.70;;;3.57;;
11548;SDS011;61444;59.472;18.306;2023-02-01T07:36:15;12.13;;;3.37;;
11548;SDS011;61444;59.472;18.306;2023-02-01T07:38:24;11.80;;;3.73;;
11548;SDS011;61444;59.472;18.306;2023-02-01T07:40:34;9.37;;;4.03;;
11548;SDS011;61444;59.472;18.306;2023-02-01T07:42:43;11.57;;;4.07;;
11548;SDS011;61444;59.472;18.306;2023-02-01T07:44:52;8.17;;;4.20;;
11548;SDS011;61444;59.472;18.306;2023-02-01T07:47:01;13.90;;;4.67;;
11548;SDS011;61444;59.472;18.306;2023-02-01T07:49:10;15.03;;;4.20;;
11548;SDS011;61444;59.472;18.306;2023-02-01T07:51:20;12.53;;;4.50;;
11548;SDS011;61444;59.472;18.306;2023-02-01T07:53:29;10.07;;;4.63;;
11548;SDS011;61444;59.472;18.306;2023-02-01T07:55:40;12.07;;;4.70;;
11548;SDS011;61444;59.472;18.306;2023-02-01T07:57:49;9.60;;;4.67;;
11548;SDS011;61444;59.472;18.306;2023-02-01T07:59:58;16.03;;;4.00;;
11548;SDS011;61444;59.472;18.306;2023-02-01T08:02:24;11.23;;;3.90;;
11548;SDS011;61444;59.472;18.306;2023-02-01T08:04:33;22.63;;;4.50;;
11548;SDS011;61444;59.472;18.306;2023-02-01T08:06:42;11.80;;;5.03;;
11548;SDS011;61444;59.472;18.306;2023-02-01T08:08:52;13.93;;;5.40;;
11548;SDS011;61444;59.472;18.306;2023-02-01T08:11:03;9.57;;;4.13;;
11548;SDS011;61444;59.472;18.306;2023-02-01T08:13:13;14.27;;;3.83;;
11548;SDS011;61444;59.472;18.306;2023-02-01T08:15:22;11.83;;;3.57;;
11548;SDS011;61444;59.472;18.306;2023-02-01T08:17:31;8.23;;;3.53;;
11548;SDS011;61444;59.472;18.306;2023-02-01T08:19:39;10.73;;;3.53;;
11548;SDS011;61444;59.472;18.306;2023-02-01T08:21:48;9.33;;;4.23;;
11548;SDS011;61444;59.472;18.306;2023-02-01T08:23:57;12.30;;;4.70;;
11548;SDS011;61444;59.472;18.306;2023-02-01T08:26:09;6.43;;;4.30;;
11548;SDS011;61444;59.472;18.306;2023-02-01T08:28:18;9.23;;;4.00;;
11548;SDS011;61444;59.472;18.306;2023-02-01T08:30:27;13.17;;;4.57;;
11548;SDS011;61444;59.472;18.306;2023-02-01T08:32:36;9.33;;;3.50;;
11548;SDS011;61444;59.472;18.306;2023-02-01T08:34:46;8.73;;;3.57;;
11548;SDS011;61444;59.472;18.306;2023-02-01T08:36:55;11.10;;;3.93;;
11548;SDS011;61444;59.472;18.306;2023-02-01T08:39:06;6.03;;;3.17;;
11548;SDS011;61444;59.472;18.306;2023-02-01T08:41:17;8.60;;;3.53;;
11548;SDS011;61444;59.472;18.306;2023-02-01T08:43:27;11.40;;;3.30;;
11548;SDS011;61444;59.472;18.306;2023-02-01T08:45:36;12.57;;;3.43;;
11548;SDS011;61444;59.472;18.306;2023-02-01T08:47:45;8.27;;;3.00;;
11548;SDS011;61444;59.472;18.306;2023-02-01T08:49:54;7.93;;;3.13;;
11548;SDS011;61444;59.472;18.306;2023-02-01T08:52:03;10.00;;;2.90;;
11548;SDS011;61444;59.472;18.306;2023-02-01T08:54:21;9.27;;;3.20;;
11548;SDS011;61444;59.472;18.306;2023-02-01T08:56:32;12.03;;;2.93;;
11548;SDS011;61444;59.472;18.306;2023-02-01T08:58:41;10.00;;;2.80;;
11548;SDS011;61444;59.472;18.306;2023-02-01T09:00:50;8.93;;;3.33;;
11548;SDS011;61444;59.472;18.306;2023-02-01T09:02:59;7.03;;;2.93;;
11548;SDS011;61444;59.472;18.306;2023-02-01T09:05:08;9.30;;;3.53;;
11548;SDS011;61444;59.472;18.306;2023-02-01T09:07:18;6.10;;;3.20;;
11548;SDS011;61444;59.472;18.306;2023-02-01T09:09:27;7.33;;;3.33;;
11548;SDS011;61444;59.472;18.306;2023-02-01T09:11:38;6.97;;;3.30;;
11548;SDS011;61444;59.472;18.306;2023-02-01T09:13:47;8.83;;;3.00;;
11548;SDS011;61444;59.472;18.306;2023-02-01T09:15:56;7.70;;;3.03;;
11548;SDS011;61444;59.472;18.306;2023-02-01T09:18:06;8.50;;;2.97;;
11548;SDS011;61444;59.472;18.306;2023-02-01T09:20:15;6.53;;;3.17;;
11548;SDS011;61444;59.472;18.306;2023-02-01T09:22:27;8.83;;;3.57;;
11548;SDS011;61444;59.472;18.306;2023-02-01T09:24:36;12.83;;;4.43;;
11548;SDS011;61444;59.472;18.306;2023-02-01T09:26:47;14.07;;;5.50;;
11548;SDS011;61444;59.472;18.306;2023-02-01T09:28:56;7.50;;;3.50;;
11548;SDS011;61444;59.472;18.306;2023-02-01T09:31:04;8.83;;;3.40;;
11548;SDS011;61444;59.472;18.306;2023-02-01T09:33:14;5.87;;;3.00;;
11548;SDS011;61444;59.472;18.306;2023-02-01T09:35:24;7.00;;;3.30;;
11548;SDS011;61444;59.472;18.306;2023-02-01T09:37:33;8.87;;;3.83;;
11548;SDS011;61444;59.472;18.306;2023-02-01T09:39:42;11.30;;;4.83;;
11548;SDS011;61444;59.472;18.306;2023-02-01T09:41:56;5.57;;;3.43;;
11548;SDS011;61444;59.472;18.306;2023-02-01T09:44:10;8.07;;;2.90;;
11548;SDS011;61444;59.472;18.306;2023-02-01T09:46:23;6.77;;;2.60;;
11548;SDS011;61444;59.472;18.306;2023-02-01T09:48:33;5.77;;;2.60;;
11548;SDS011;61444;59.472;18.306;2023-02-01T09:50:44;10.63;;;3.10;;
11548;SDS011;61444;59.472;18.306;2023-02-01T09:52:55;4.57;;;2.23;;
11548;SDS011;61444;59.472;18.306;2023-02-01T09:55:07;7.37;;;2.50;;
11548;SDS011;61444;59.472;18.306;2023-02-01T09:57:22;3.60;;;1.97;;
11548;SDS011;61444;59.472;18.306;2023-02-01T09:59:34;7.40;;;2.37;;
11548;SDS011;61444;59.472;18.306;2023-02-01T10:01:45;4.40;;;2.10;;
11548;SDS011;61444;59.472;18.306;2023-02-01T10:03:56;5.47;;;2.30;;
11548;SDS011;61444;59.472;18.306;2023-02-01T10:06:15;6.53;;;2.30;;
11548;SDS011;61444;59.472;18.306;2023-02-01T10:08:30;5.33;;;1.60;;
11548;SDS011;61444;59.472;18.306;2023-02-01T10:10:43;7.20;;;2.23;;
11548;SDS011;61444;59.472;18.306;2023-02-01T10:13:01;5.73;;;2.13;;
11548;SDS011;61444;59.472;18.306;2023-02-01T10:15:15;6.13;;;1.90;;
11548;SDS011;61444;59.472;18.306;2023-02-01T10:17:42;5.43;;;1.77;;
11548;SDS011;61444;59.472;18.306;2023-02-01T10:19:56;5.37;;;1.57;;
11548;SDS011;61444;59.472;18.306;2023-02-01T10:22:10;5.70;;;1.83;;
11548;SDS011;61444;59.472;18.306;2023-02-01T10:24:24;7.07;;;2.00;;
11548;SDS011;61444;59.472;18.306;2023-02-01T10:26:36;5.60;;;2.00;;
11548;SDS011;61444;59.472;18.306;2023-02-01T10:28:48;9.43;;;2.30;;
11548;SDS011;61444;59.472;18.306;2023-02-01T10:30:57;5.67;;;1.83;;
11548;SDS011;61444;59.472;18.306;2023-02-01T10:33:12;3.80;;;1.67;;
11548;SDS011;61444;59.472;18.306;2023-02-01T10:35:24;3.37;;;1.43;;
11548;SDS011;61444;59.472;18.306;2023-02-01T10:37:35;6.83;;;1.97;;
11548;SDS011;61444;59.472;18.306;2023-02-01T10:39:44;3.23;;;1.87;;
11548;SDS011;61444;59.472;18.306;2023-02-01T10:41:54;4.70;;;1.70;;
11548;SDS011;61444;59.472;18.306;2023-02-01T10:44:05;6.67;;;4.33;;
11548;SDS011;61444;59.472;18.306;2023-02-01T10:46:19;9.77;;;4.37;;
11548;SDS011;61444;59.472;18.306;2023-02-01T10:48:28;7.33;;;3.60;;
11548;SDS011;61444;59.472;18.306;2023-02-01T10:50:38;6.47;;;2.87;;
11548;SDS011;61444;59.472;18.306;2023-02-01T10:52:50;4.33;;;2.43;;
11548;SDS011;61444;59.472;18.306;2023-02-01T10:57:26;5.23;;;1.83;;
11548;SDS011;61444;59.472;18.306;2023-02-01T10:59:37;4.27;;;1.90;;
11548;SDS011;61444;59.472;18.306;2023-02-01T11:01:49;7.10;;;2.00;;
11548;SDS011;61444;59.472;18.306;2023-02-01T11:04:05;6.07;;;1.70;;
11548;SDS011;61444;59.472;18.306;2023-02-01T11:06:21;3.30;;;1.60;;
11548;SDS011;61444;59.472;18.306;2023-02-01T11:08:31;5.00;;;2.00;;
11548;SDS011;61444;59.472;18.306;2023-02-01T11:10:41;3.63;;;1.93;;
11548;SDS011;61444;59.472;18.306;2023-02-01T11:12:53;5.00;;;1.97;;
11548;SDS011;61444;59.472;18.306;2023-02-01T11:15:12;4.33;;;1.63;;
11548;SDS011;61444;59.472;18.306;2023-02-01T11:17:24;5.43;;;1.63;;
11548;SDS011;61444;59.472;18.306;2023-02-01T11:19:34;6.73;;;1.87;;
11548;SDS011;61444;59.472;18.306;2023-02-01T11:21:44;6.43;;;1.83;;
11548;SDS011;61444;59.472;18.306;2023-02-01T11:24:00;6.40;;;1.80;;
11548;SDS011;61444;59.472;18.306;2023-02-01T11:26:10;3.50;;;1.97;;
11548;SDS011;61444;59.472;18.306;2023-02-01T11:28:20;6.07;;;2.37;;
11548;SDS011;61444;59.472;18.306;2023-02-01T11:30:34;3.60;;;2.00;;
11548;SDS011;61444;59.472;18.306;2023-02-01T11:32:45;6.23;;;1.73;;
11548;SDS011;61444;59.472;18.306;2023-02-01T11:34:55;7.63;;;2.43;;
11548;SDS011;61444;59.472;18.306;2023-02-01T11:37:06;6.07;;;2.00;;
11548;SDS011;61444;59.472;18.306;2023-02-01T11:39:23;5.00;;;1.80;;
11548;SDS011;61444;59.472;18.306;2023-02-01T11:41:33;6.27;;;1.73;;
11548;SDS011;61444;59.472;18.306;2023-02-01T11:43:53;3.63;;;1.33;;
11548;SDS011;61444;59.472;18.306;2023-02-01T11:46:08;6.13;;;1.43;;
11548;SDS011;61444;59.472;18.306;2023-02-01T11:48:29;2.03;;;1.20;;
11548;SDS011;61444;59.472;18.306;2023-02-01T11:50:40;4.17;;;1.20;;
11548;SDS011;61444;59.472;18.306;2023-02-01T11:53:06;2.97;;;1.40;;
11548;SDS011;61444;59.472;18.306;2023-02-01T11:55:20;3.20;;;1.00;;
11548;SDS011;61444;59.472;18.306;2023-02-01T11:57:39;4.73;;;1.70;;
11548;SDS011;61444;59.472;18.306;2023-02-01T11:59:56;5.33;;;1.73;;
11548;SDS011;61444;59.472;18.306;2023-02-01T12:02:13;4.13;;;1.53;;
11548;SDS011;61444;59.472;18.306;2023-02-01T12:06:53;4.30;;;1.60;;
11548;SDS011;61444;59.472;18.306;2023-02-01T12:09:10;3.57;;;1.20;;
11548;SDS011;61444;59.472;18.306;2023-02-01T12:11:25;6.50;;;1.60;;
11548;SDS011;61444;59.472;18.306;2023-02-01T12:13:41;2.30;;;1.23;;
11548;SDS011;61444;59.472;18.306;2023-02-01T12:15:57;3.40;;;1.33;;
11548;SDS011;61444;59.472;18.306;2023-02-01T12:23:26;2.43;;;1.43;;
11548;SDS011;61444;59.472;18.306;2023-02-01T12:25:43;4.63;;;1.50;;
11548;SDS011;61444;59.472;18.306;2023-02-01T12:30:25;7.60;;;2.10;;
11548;SDS011;61444;59.472;18.306;2023-02-01T12:32:45;3.60;;;1.67;;
11548;SDS011;61444;59.472;18.306;2023-02-01T12:35:01;2.00;;;1.20;;
11548;SDS011;61444;59.472;18.306;2023-02-01T12:37:14;4.90;;;1.60;;
11548;SDS011;61444;59.472;18.306;2023-02-01T12:39:30;3.97;;;1.50;;
11548;SDS011;61444;59.472;18.306;2023-02-01T12:41:51;9.50;;;1.77;;
11548;SDS011;61444;59.472;18.306;2023-02-01T12:44:03;2.40;;;1.30;;
11548;SDS011;61444;59.472;18.306;2023-02-01T12:46:16;2.37;;;1.00;;
11548;SDS011;61444;59.472;18.306;2023-02-01T12:48:26;1.80;;;1.00;;
11548;SDS011;61444;59.472;18.306;2023-02-01T12:50:39;3.63;;;0.90;;
11548;SDS011;61444;59.472;18.306;2023-02-01T12:52:52;4.17;;;1.00;;
11548;SDS011;61444;59.472;18.306;2023-02-01T12:55:03;2.77;;;1.10;;
11548;SDS011;61444;59.472;18.306;2023-02-01T12:57:15;4.70;;;1.40;;
11548;SDS011;61444;59.472;18.306;2023-02-01T12:59:26;1.93;;;1.50;;
11548;SDS011;61444;59.472;18.306;2023-02-01T13:01:36;2.27;;;1.30;;
11548;SDS011;61444;59.472;18.306;2023-02-01T13:03:50;3.90;;;1.07;;
11548;SDS011;61444;59.472;18.306;2023-02-01T13:06:02;3.53;;;1.23;;
11548;SDS011;61444;59.472;18.306;2023-02-01T13:08:14;2.70;;;1.03;;
11548;SDS011;61444;59.472;18.306;2023-02-01T13:10:30;1.80;;;1.20;;
11548;SDS011;61444;59.472;18.306;2023-02-01T13:12:43;3.23;;;1.10;;
11548;SDS011;61444;59.472;18.306;2023-02-01T13:14:52;2.83;;;1.13;;